sensor_id;sensor_type;location;lat;lon;timestamp;pressure;altitude;pressure_sealevel;temperature;humidity
71772;BME280;59606;52.138;5.424;2024-01-06T00:00:33;100463.41;;;5.34;100.00
71772;BME280;59606;52.138;5.424;2024-01-06T00:02:59;100465.09;;;5.35;100.00
71772;BME280;59606;52.138;5.424;2024-01-06T00:05:26;100466.00;;;5.34;100.00
71772;BME280;59606;52.138;5.424;2024-01-06T00:07:52;100470.38;;;5.32;100.00
71772;BME280;59606;52.138;5.424;2024-01-06T00:10:19;100469.66;;;5.28;100.00
71772;BME280;59606;52.138;5.424;2024-01-06T00:12:45;100472.25;;;5.28;100.00
71772;BME280;59606;52.138;5.424;2024-01-06T00:15:12;100473.97;;;5.28;100.00
71772;BME280;59606;52.138;5.424;2024-01-06T00:17:38;100482.66;;;5.27;100.00
71772;BME280;59606;52.138;5.424;2024-01-06T00:20:06;100492.19;;;5.25;100.00
71772;BME280;59606;52.138;5.424;2024-01-06T00:22:33;100492.38;;;5.20;100.00
71772;BME280;59606;52.138;5.424;2024-01-06T00:24:59;100501.00;;;5.19;100.00
71772;BME280;59606;52.138;5.424;2024-01-06T00:27:26;100501.19;;;5.14;100.00
71772;BME280;59606;52.138;5.424;2024-01-06T00:29:53;100505.63;;;5.11;100.00
71772;BME280;59606;52.138;5.424;2024-01-06T00:32:19;100505.72;;;5.08;100.00
71772;BME280;59606;52.138;5.424;2024-01-06T00:34:46;100507.47;;;5.07;100.00
71772;BME280;59606;52.138;5.424;2024-01-06T00:37:14;100506.63;;;5.07;100.00
71772;BME280;59606;52.138;5.424;2024-01-06T00:39:40;100505.84;;;5.05;100.00
71772;BME280;59606;52.138;5.424;2024-01-06T00:42:07;100508.53;;;5.02;100.00
71772;BME280;59606;52.138;5.424;2024-01-06T00:44:35;100512.75;;;5.04;100.00
71772;BME280;59606;52.138;5.424;2024-01-06T00:47:02;100513.50;;;5.06;100.00
71772;BME280;59606;52.138;5.424;2024-01-06T00:49:29;100519.66;;;5.04;100.00
71772;BME280;59606;52.138;5.424;2024-01-06T00:51:56;100523.13;;;5.03;100.00
71772;BME280;59606;52.138;5.424;2024-01-06T00:54:22;100522.28;;;5.02;100.00
71772;BME280;59606;52.138;5.424;2024-01-06T00:56:49;100520.59;;;5.01;100.00
71772;BME280;59606;52.138;5.424;2024-01-06T00:59:15;100522.38;;;4.99;100.00
71772;BME280;59606;52.138;5.424;2024-01-06T01:01:42;100522.47;;;4.97;100.00
71772;BME280;59606;52.138;5.424;2024-01-06T01:04:08;100523.47;;;4.93;100.00
71772;BME280;59606;52.138;5.424;2024-01-06T01:06:37;100529.47;;;4.94;100.00
71772;BME280;59606;52.138;5.424;2024-01-06T01:09:04;100533.81;;;4.93;100.00
71772;BME280;59606;52.138;5.424;2024-01-06T01:11:30;100533.00;;;4.91;100.00
71772;BME280;59606;52.138;5.424;2024-01-06T01:13:57;100542.53;;;4.89;100.00
71772;BME280;59606;52.138;5.424;2024-01-06T01:16:24;100545.97;;;4.90;100.00
71772;BME280;59606;52.138;5.424;2024-01-06T01:18:51;100545.25;;;4.86;100.00
71772;BME280;59606;52.138;5.424;2024-01-06T01:21:17;100557.41;;;4.83;100.00
71772;BME280;59606;52.138;5.424;2024-01-06T01:23:44;100565.28;;;4.80;100.00
71772;BME280;59606;52.138;5.424;2024-01-06T01:26:10;100561.06;;;4.77;100.00
71772;BME280;59606;52.138;5.424;2024-01-06T01:28:37;100562.69;;;4.80;100.00
71772;BME280;59606;52.138;5.424;2024-01-06T01:31:03;100570.53;;;4.77;100.00
71772;BME280;59606;52.138;5.424;2024-01-06T01:33:30;100575.81;;;4.73;100.00
71772;BME280;59606;52.138;5.424;2024-01-06T01:35:57;100576.75;;;4.71;100.00
71772;BME280;59606;52.138;5.424;2024-01-06T01:38:27;100576.81;;;4.69;100.00
71772;BME280;59606;52.138;5.424;2024-01-06T01:40:54;100587.97;;;4.70;100.00
71772;BME280;59606;52.138;5.424;2024-01-06T01:43:21;100589.00;;;4.64;100.00
71772;BME280;59606;52.138;5.424;2024-01-06T01:45:55;100589.00;;;4.64;100.00
71772;BME280;59606;52.138;5.424;2024-01-06T01:48:23;100602.72;;;4.66;100.00
71772;BME280;59606;52.138;5.424;2024-01-06T01:50:52;100598.44;;;4.65;100.00
71772;BME280;59606;52.138;5.424;2024-01-06T01:53:19;100606.13;;;4.67;100.00
71772;BME280;59606;52.138;5.424;2024-01-06T01:55:46;100604.56;;;4.63;100.00
71772;BME280;59606;52.138;5.424;2024-01-06T01:58:15;100607.97;;;4.63;100.00
71772;BME280;59606;52.138;5.424;2024-01-06T02:00:42;100610.56;;;4.63;100.00
71772;BME280;59606;52.138;5.424;2024-01-06T02:03:11;100611.50;;;4.61;100.00
71772;BME280;59606;52.138;5.424;2024-01-06T02:05:39;100620.03;;;4.63;100.00
71772;BME280;59606;52.138;5.424;2024-01-06T02:08:06;100624.31;;;4.64;100.00
71772;BME280;59606;52.138;5.424;2024-01-06T02:10:32;100619.13;;;4.64;100.00
71772;BME280;59606;52.138;5.424;2024-01-06T02:13:11;100620.91;;;4.62;100.00
71772;BME280;59606;52.138;5.424;2024-01-06T02:15:38;100626.97;;;4.61;100.00
71772;BME280;59606;52.138;5.424;2024-01-06T02:18:05;100630.47;;;4.60;100.00
71772;BME280;59606;52.138;5.424;2024-01-06T02:20:32;100622.75;;;4.58;100.00
71772;BME280;59606;52.138;5.424;2024-01-06T02:22:59;100634.75;;;4.59;100.00
71772;BME280;59606;52.138;5.424;2024-01-06T02:25:27;100633.03;;;4.60;100.00
71772;BME280;59606;52.138;5.424;2024-01-06T02:27:55;100638.09;;;4.63;100.00
71772;BME280;59606;52.138;5.424;2024-01-06T02:30:21;100635.66;;;4.58;100.00
71772;BME280;59606;52.138;5.424;2024-01-06T02:32:48;100639.97;;;4.58;100.00
71772;BME280;59606;52.138;5.424;2024-01-06T02:35:14;100644.19;;;4.60;100.00
71772;BME280;59606;52.138;5.424;2024-01-06T02:37:41;100637.47;;;4.56;100.00
71772;BME280;59606;52.138;5.424;2024-01-06T02:40:08;100648.66;;;4.55;100.00
71772;BME280;59606;52.138;5.424;2024-01-06T02:42:35;100653.88;;;4.54;100.00
71772;BME280;59606;52.138;5.424;2024-01-06T02:45:01;100664.13;;;4.55;100.00
71772;BME280;59606;52.138;5.424;2024-01-06T02:47:28;100662.47;;;4.54;100.00
71772;BME280;59606;52.138;5.424;2024-01-06T02:49:55;100666.78;;;4.54;100.00
71772;BME280;59606;52.138;5.424;2024-01-06T02:52:21;100673.72;;;4.52;100.00
71772;BME280;59606;52.138;5.424;2024-01-06T02:54:48;100670.34;;;4.49;100.00
71772;BME280;59606;52.138;5.424;2024-01-06T02:57:15;100667.72;;;4.51;100.00
71772;BME280;59606;52.138;5.424;2024-01-06T02:59:42;100674.56;;;4.52;100.00
71772;BME280;59606;52.138;5.424;2024-01-06T03:02:08;100671.22;;;4.48;100.00
71772;BME280;59606;52.138;5.424;2024-01-06T03:04:35;100673.88;;;4.47;100.00
71772;BME280;59606;52.138;5.424;2024-01-06T03:07:02;100685.06;;;4.46;100.00
71772;BME280;59606;52.138;5.424;2024-01-06T03:09:29;100675.75;;;4.42;100.00
71772;BME280;59606;52.138;5.424;2024-01-06T03:11:55;100681.72;;;4.44;100.00
71772;BME280;59606;52.138;5.424;2024-01-06T03:14:22;100685.22;;;4.41;100.00
71772;BME280;59606;52.138;5.424;2024-01-06T03:16:48;100685.19;;;4.43;100.00
71772;BME280;59606;52.138;5.424;2024-01-06T03:19:15;100699.78;;;4.42;100.00
71772;BME280;59606;52.138;5.424;2024-01-06T03:21:42;100694.78;;;4.38;100.00
71772;BME280;59606;52.138;5.424;2024-01-06T03:24:08;100700.78;;;4.38;100.00
71772;BME280;59606;52.138;5.424;2024-01-06T03:26:37;100707.69;;;4.38;100.00
71772;BME280;59606;52.138;5.424;2024-01-06T03:29:04;100713.75;;;4.37;100.00
71772;BME280;59606;52.138;5.424;2024-01-06T03:31:30;100712.91;;;4.36;100.00
71772;BME280;59606;52.138;5.424;2024-01-06T03:33:57;100711.28;;;4.32;100.00
71772;BME280;59606;52.138;5.424;2024-01-06T03:36:24;100721.50;;;4.35;100.00
71772;BME280;59606;52.138;5.424;2024-01-06T03:38:51;100726.66;;;4.35;100.00
71772;BME280;59606;52.138;5.424;2024-01-06T03:41:18;100735.22;;;4.37;100.00
71772;BME280;59606;52.138;5.424;2024-01-06T03:43:44;100747.28;;;4.37;100.00
71772;BME280;59606;52.138;5.424;2024-01-06T03:46:11;100741.38;;;4.33;100.00
71772;BME280;59606;52.138;5.424;2024-01-06T03:48:37;100746.53;;;4.33;100.00
71772;BME280;59606;52.138;5.424;2024-01-06T03:51:04;100751.69;;;4.33;100.00
71772;BME280;59606;52.138;5.424;2024-01-06T03:53:30;100747.31;;;4.35;100.00
71772;BME280;59606;52.138;5.424;2024-01-06T03:55:57;100748.34;;;4.30;100.00
71772;BME280;59606;52.138;5.424;2024-01-06T03:58:23;100757.84;;;4.28;100.00
71772;BME280;59606;52.138;5.424;2024-01-06T04:00:50;100757.06;;;4.25;100.00
71772;BME280;59606;52.138;5.424;2024-01-06T04:03:16;100764.84;;;4.24;100.00
71772;BME280;59606;52.138;5.424;2024-01-06T04:05:43;100759.72;;;4.22;100.00
71772;BME280;59606;52.138;5.424;2024-01-06T04:08:09;100760.63;;;4.21;100.00
71772;BME280;59606;52.138;5.424;2024-01-06T04:10:36;100775.25;;;4.21;100.00
71772;BME280;59606;52.138;5.424;2024-01-06T04:13:03;100772.66;;;4.21;100.00
71772;BME280;59606;52.138;5.424;2024-01-06T04:15:29;100771.03;;;4.18;100.00
71772;BME280;59606;52.138;5.424;2024-01-06T04:17:56;100765.09;;;4.16;100.00
71772;BME280;59606;52.138;5.424;2024-01-06T04:20:23;100770.25;;;4.16;100.00
71772;BME280;59606;52.138;5.424;2024-01-06T04:22:49;100774.59;;;4.14;100.00
71772;BME280;59606;52.138;5.424;2024-01-06T04:25:16;100774.59;;;4.14;100.00
71772;BME280;59606;52.138;5.424;2024-01-06T04:27:42;100774.59;;;4.14;100.00
71772;BME280;59606;52.138;5.424;2024-01-06T04:30:09;100778.09;;;4.12;100.00
71772;BME280;59606;52.138;5.424;2024-01-06T04:32:36;100776.47;;;4.09;100.00
71772;BME280;59606;52.138;5.424;2024-01-06T04:35:03;100779.06;;;4.08;100.00
71772;BME280;59606;52.138;5.424;2024-01-06T04:37:29;100785.91;;;4.09;100.00
71772;BME280;59606;52.138;5.424;2024-01-06T04:39:56;100783.41;;;4.06;100.00
71772;BME280;59606;52.138;5.424;2024-01-06T04:42:23;100789.44;;;4.06;100.00
71772;BME280;59606;52.138;5.424;2024-01-06T04:44:50;100786.88;;;4.05;100.00
71772;BME280;59606;52.138;5.424;2024-01-06T04:47:17;100793.94;;;3.99;100.00
71772;BME280;59606;52.138;5.424;2024-01-06T04:49:44;100795.69;;;3.97;100.00
71772;BME280;59606;52.138;5.424;2024-01-06T04:52:11;100795.75;;;3.96;100.00
71772;BME280;59606;52.138;5.424;2024-01-06T04:54:37;100791.47;;;3.95;100.00
71772;BME280;59606;52.138;5.424;2024-01-06T04:57:04;100800.09;;;3.94;100.00
71772;BME280;59606;52.138;5.424;2024-01-06T04:59:30;100805.31;;;3.92;100.00
71772;BME280;59606;52.138;5.424;2024-01-06T05:01:57;100806.22;;;3.90;100.00
71772;BME280;59606;52.138;5.424;2024-01-06T05:04:24;100811.47;;;3.85;100.00
71772;BME280;59606;52.138;5.424;2024-01-06T05:06:51;100814.13;;;3.82;100.00
71772;BME280;59606;52.138;5.424;2024-01-06T05:09:18;100809.00;;;3.82;100.00
71772;BME280;59606;52.138;5.424;2024-01-06T05:11:45;100816.78;;;3.81;100.00
71772;BME280;59606;52.138;5.424;2024-01-06T05:14:12;100818.53;;;3.78;100.00
71772;BME280;59606;52.138;5.424;2024-01-06T05:16:38;100818.50;;;3.80;100.00
71772;BME280;59606;52.138;5.424;2024-01-06T05:19:05;100827.09;;;3.81;100.00
71772;BME280;59606;52.138;5.424;2024-01-06T05:21:32;100828.75;;;3.83;100.00
71772;BME280;59606;52.138;5.424;2024-01-06T05:23:59;100837.34;;;3.82;100.00
71772;BME280;59606;52.138;5.424;2024-01-06T05:26:25;100830.56;;;3.80;100.00
71772;BME280;59606;52.138;5.424;2024-01-06T05:28:52;100842.59;;;3.79;100.00
71772;BME280;59606;52.138;5.424;2024-01-06T05:31:19;100850.31;;;3.79;100.00
71772;BME280;59606;52.138;5.424;2024-01-06T05:33:46;100845.19;;;3.77;100.00
71772;BME280;59606;52.138;5.424;2024-01-06T05:36:12;100849.59;;;3.74;100.00
71772;BME280;59606;52.138;5.424;2024-01-06T05:38:39;100857.31;;;3.74;100.00
71772;BME280;59606;52.138;5.424;2024-01-06T05:41:05;100862.56;;;3.71;100.00
71772;BME280;59606;52.138;5.424;2024-01-06T05:43:32;100857.44;;;3.69;100.00
71772;BME280;59606;52.138;5.424;2024-01-06T05:45:58;100866.03;;;3.70;100.00
71772;BME280;59606;52.138;5.424;2024-01-06T05:48:27;100868.69;;;3.67;100.00
71772;BME280;59606;52.138;5.424;2024-01-06T05:50:54;100874.66;;;3.67;100.00
71772;BME280;59606;52.138;5.424;2024-01-06T05:53:20;100865.34;;;3.63;100.00
71772;BME280;59606;52.138;5.424;2024-01-06T05:55:47;100868.81;;;3.62;100.00
71772;BME280;59606;52.138;5.424;2024-01-06T05:58:14;100876.53;;;3.62;100.00
71772;BME280;59606;52.138;5.424;2024-01-06T06:00:41;100879.13;;;3.61;100.00
71772;BME280;59606;52.138;5.424;2024-01-06T06:03:07;100881.75;;;3.59;100.00
71772;BME280;59606;52.138;5.424;2024-01-06T06:05:34;100883.50;;;3.57;100.00
71772;BME280;59606;52.138;5.424;2024-01-06T06:08:00;100890.41;;;3.55;100.00
71772;BME280;59606;52.138;5.424;2024-01-06T06:10:27;100885.34;;;3.52;100.00
71772;BME280;59606;52.138;5.424;2024-01-06T06:13:07;100898.22;;;3.52;100.00
71772;BME280;59606;52.138;5.424;2024-01-06T06:15:37;100904.28;;;3.51;100.00
71772;BME280;59606;52.138;5.424;2024-01-06T06:18:03;100903.50;;;3.47;100.00
71772;BME280;59606;52.138;5.424;2024-01-06T06:20:30;100911.28;;;3.46;100.00
71772;BME280;59606;52.138;5.424;2024-01-06T06:22:57;100907.88;;;3.44;100.00
71772;BME280;59606;52.138;5.424;2024-01-06T06:25:23;100921.66;;;3.43;100.00
71772;BME280;59606;52.138;5.424;2024-01-06T06:27:50;100917.47;;;3.39;100.00
71772;BME280;59606;52.138;5.424;2024-01-06T06:30:16;100919.22;;;3.35;100.00
71772;BME280;59606;52.138;5.424;2024-01-06T06:32:43;100922.63;;;3.37;100.00
71772;BME280;59606;52.138;5.424;2024-01-06T06:35:10;100931.19;;;3.39;100.00
71772;BME280;59606;52.138;5.424;2024-01-06T06:37:36;100931.19;;;3.38;100.00
71772;BME280;59606;52.138;5.424;2024-01-06T06:40:03;100940.72;;;3.36;100.00
71772;BME280;59606;52.138;5.424;2024-01-06T06:42:30;100940.63;;;3.39;100.00
71772;BME280;59606;52.138;5.424;2024-01-06T06:44:57;100953.50;;;3.39;100.00
71772;BME280;59606;52.138;5.424;2024-01-06T06:47:23;100946.66;;;3.38;100.00
71772;BME280;59606;52.138;5.424;2024-01-06T06:49:50;100957.78;;;3.40;100.00
71772;BME280;59606;52.138;5.424;2024-01-06T06:52:17;100959.50;;;3.39;100.00
71772;BME280;59606;52.138;5.424;2024-01-06T06:54:43;100956.84;;;3.42;100.00
71772;BME280;59606;52.138;5.424;2024-01-06T06:57:10;100967.16;;;3.42;100.00
71772;BME280;59606;52.138;5.424;2024-01-06T06:59:36;100968.88;;;3.42;100.00
71772;BME280;59606;52.138;5.424;2024-01-06T07:02:03;100976.63;;;3.40;100.00
71772;BME280;59606;52.138;5.424;2024-01-06T07:04:29;100982.69;;;3.38;100.00
71772;BME280;59606;52.138;5.424;2024-01-06T07:06:56;100982.75;;;3.36;100.00
71772;BME280;59606;52.138;5.424;2024-01-06T07:09:23;100984.44;;;3.37;100.00
71772;BME280;59606;52.138;5.424;2024-01-06T07:11:51;100986.13;;;3.38;100.00
71772;BME280;59606;52.138;5.424;2024-01-06T07:14:17;100993.91;;;3.35;100.00
71772;BME280;59606;52.138;5.424;2024-01-06T07:16:44;100998.22;;;3.35;100.00
71772;BME280;59606;52.138;5.424;2024-01-06T07:19:10;100998.28;;;3.31;100.00
71772;BME280;59606;52.138;5.424;2024-01-06T07:21:37;101008.59;;;3.31;100.00
71772;BME280;59606;52.138;5.424;2024-01-06T07:24:04;101008.56;;;3.33;100.00
71772;BME280;59606;52.138;5.424;2024-01-06T07:26:31;101017.19;;;3.30;100.00
71772;BME280;59606;52.138;5.424;2024-01-06T07:28:57;101012.03;;;3.30;100.00
71772;BME280;59606;52.138;5.424;2024-01-06T07:31:24;101012.88;;;3.31;100.00
71772;BME280;59606;52.138;5.424;2024-01-06T07:33:50;101016.34;;;3.30;100.00
71772;BME280;59606;52.138;5.424;2024-01-06T07:36:17;101018.94;;;3.30;100.00
71772;BME280;59606;52.138;5.424;2024-01-06T07:38:44;101032.63;;;3.32;100.00
71772;BME280;59606;52.138;5.424;2024-01-06T07:41:12;101024.91;;;3.32;100.00
71772;BME280;59606;52.138;5.424;2024-01-06T07:43:38;101033.53;;;3.29;100.00
71772;BME280;59606;52.138;5.424;2024-01-06T07:46:05;101036.09;;;3.29;100.00
71772;BME280;59606;52.138;5.424;2024-01-06T07:48:33;101044.69;;;3.30;100.00
71772;BME280;59606;52.138;5.424;2024-01-06T07:51:00;101054.97;;;3.30;100.00
71772;BME280;59606;52.138;5.424;2024-01-06T07:53:26;101061.00;;;3.29;100.00
71772;BME280;59606;52.138;5.424;2024-01-06T07:55:53;101062.75;;;3.27;100.00
71772;BME280;59606;52.138;5.424;2024-01-06T07:58:19;101062.72;;;3.28;100.00
71772;BME280;59606;52.138;5.424;2024-01-06T08:00:46;101062.69;;;3.30;100.00
71772;BME280;59606;52.138;5.424;2024-01-06T08:03:13;101067.84;;;3.30;100.00
71772;BME280;59606;52.138;5.424;2024-01-06T08:05:40;101066.19;;;3.27;100.00
71772;BME280;59606;52.138;5.424;2024-01-06T08:08:06;101077.38;;;3.26;100.00
71772;BME280;59606;52.138;5.424;2024-01-06T08:10:33;101080.78;;;3.27;100.00
71772;BME280;59606;52.138;5.424;2024-01-06T08:12:59;101081.63;;;3.27;100.00
71772;BME280;59606;52.138;5.424;2024-01-06T08:15:26;101081.63;;;3.27;100.00
71772;BME280;59606;52.138;5.424;2024-01-06T08:17:53;101098.81;;;3.27;100.00
71772;BME280;59606;52.138;5.424;2024-01-06T08:20:19;101095.34;;;3.28;100.00
71772;BME280;59606;52.138;5.424;2024-01-06T08:22:46;101094.47;;;3.29;100.00
71772;BME280;59606;52.138;5.424;2024-01-06T08:25:16;101090.19;;;3.28;100.00
71772;BME280;59606;52.138;5.424;2024-01-06T08:27:44;101091.91;;;3.29;100.00
71772;BME280;59606;52.138;5.424;2024-01-06T08:30:10;101095.28;;;3.31;100.00
71772;BME280;59606;52.138;5.424;2024-01-06T08:32:38;101103.91;;;3.30;100.00
71772;BME280;59606;52.138;5.424;2024-01-06T08:35:05;101109.00;;;3.31;100.00
71772;BME280;59606;52.138;5.424;2024-01-06T08:37:32;101113.34;;;3.29;100.00
71772;BME280;59606;52.138;5.424;2024-01-06T08:39:58;101117.59;;;3.32;100.00
71772;BME280;59606;52.138;5.424;2024-01-06T08:42:25;101119.28;;;3.33;100.00
71772;BME280;59606;52.138;5.424;2024-01-06T08:44:52;101121.88;;;3.31;100.00
71772;BME280;59606;52.138;5.424;2024-01-06T08:47:19;101125.34;;;3.30;100.00
71772;BME280;59606;52.138;5.424;2024-01-06T08:49:45;101132.22;;;3.30;100.00
71772;BME280;59606;52.138;5.424;2024-01-06T08:52:12;101143.34;;;3.32;100.00
71772;BME280;59606;52.138;5.424;2024-01-06T08:54:38;101145.91;;;3.32;100.00
71772;BME280;59606;52.138;5.424;2024-01-06T08:57:05;101156.19;;;3.34;100.00
71772;BME280;59606;52.138;5.424;2024-01-06T08:59:32;101149.28;;;3.36;100.00
71772;BME280;59606;52.138;5.424;2024-01-06T09:01:59;101161.28;;;3.35;100.00
71772;BME280;59606;52.138;5.424;2024-01-06T09:04:26;101167.25;;;3.37;100.00
71772;BME280;59606;52.138;5.424;2024-01-06T09:06:52;101165.53;;;3.38;100.00
71772;BME280;59606;52.138;5.424;2024-01-06T09:09:19;101175.81;;;3.39;100.00
71772;BME280;59606;52.138;5.424;2024-01-06T09:11:46;101180.13;;;3.37;100.00
71772;BME280;59606;52.138;5.424;2024-01-06T09:14:12;101175.88;;;3.36;100.00
71772;BME280;59606;52.138;5.424;2024-01-06T09:16:39;101181.03;;;3.36;100.00
71772;BME280;59606;52.138;5.424;2024-01-06T09:19:06;101182.72;;;3.37;100.00
71772;BME280;59606;52.138;5.424;2024-01-06T09:21:32;101189.56;;;3.38;100.00
71772;BME280;59606;52.138;5.424;2024-01-06T09:23:59;101185.34;;;3.36;100.00
71772;BME280;59606;52.138;5.424;2024-01-06T09:26:26;101198.16;;;3.37;100.00
71772;BME280;59606;52.138;5.424;2024-01-06T09:28:53;101200.75;;;3.37;100.00
71772;BME280;59606;52.138;5.424;2024-01-06T09:31:20;101206.72;;;3.38;100.00
71772;BME280;59606;52.138;5.424;2024-01-06T09:33:46;101204.19;;;3.36;100.00
71772;BME280;59606;52.138;5.424;2024-01-06T09:36:13;101208.47;;;3.39;100.00
71772;BME280;59606;52.138;5.424;2024-01-06T09:38:40;101215.25;;;3.43;100.00
71772;BME280;59606;52.138;5.424;2024-01-06T09:41:07;101212.59;;;3.46;100.00
71772;BME280;59606;52.138;5.424;2024-01-06T09:43:34;101224.53;;;3.50;100.00
71772;BME280;59606;52.138;5.424;2024-01-06T09:46:12;101227.06;;;3.51;100.00
71772;BME280;59606;52.138;5.424;2024-01-06T09:48:40;101237.38;;;3.53;100.00
71772;BME280;59606;52.138;5.424;2024-01-06T09:51:11;101236.47;;;3.54;100.00
71772;BME280;59606;52.138;5.424;2024-01-06T09:53:48;101234.75;;;3.54;100.00
71772;BME280;59606;52.138;5.424;2024-01-06T09:56:16;101231.38;;;3.52;100.00
71772;BME280;59606;52.138;5.424;2024-01-06T09:58:43;101251.09;;;3.53;100.00
71772;BME280;59606;52.138;5.424;2024-01-06T10:01:11;101240.72;;;3.55;100.00
71772;BME280;59606;52.138;5.424;2024-01-06T10:03:38;101251.09;;;3.52;100.00
71772;BME280;59606;52.138;5.424;2024-01-06T10:06:05;101248.56;;;3.50;100.00
71772;BME280;59606;52.138;5.424;2024-01-06T10:08:31;101251.09;;;3.53;100.00
71772;BME280;59606;52.138;5.424;2024-01-06T10:11:01;101250.19;;;3.54;100.00
71772;BME280;59606;52.138;5.424;2024-01-06T10:13:28;101262.22;;;3.56;100.00
71772;BME280;59606;52.138;5.424;2024-01-06T10:15:55;101274.22;;;3.57;100.00
71772;BME280;59606;52.138;5.424;2024-01-06T10:18:21;101273.38;;;3.54;100.00
71772;BME280;59606;52.138;5.424;2024-01-06T10:20:49;101278.53;;;3.56;100.00
71772;BME280;59606;52.138;5.424;2024-01-06T10:23:16;101273.38;;;3.56;100.00
71772;BME280;59606;52.138;5.424;2024-01-06T10:25:42;101272.53;;;3.54;100.00
71772;BME280;59606;52.138;5.424;2024-01-06T10:28:12;101280.31;;;3.51;100.00
71772;BME280;59606;52.138;5.424;2024-01-06T10:30:40;101285.47;;;3.51;100.00
71772;BME280;59606;52.138;5.424;2024-01-06T10:33:09;101288.03;;;3.52;100.00
71772;BME280;59606;52.138;5.424;2024-01-06T10:35:40;101288.84;;;3.54;100.00
71772;BME280;59606;52.138;5.424;2024-01-06T10:38:07;101293.13;;;3.54;100.00
71772;BME280;59606;52.138;5.424;2024-01-06T10:40:33;101294.84;;;3.55;100.00
71772;BME280;59606;52.138;5.424;2024-01-06T10:43:00;101298.28;;;3.54;100.00
71772;BME280;59606;52.138;5.424;2024-01-06T10:45:28;101300.81;;;3.57;100.00
71772;BME280;59606;52.138;5.424;2024-01-06T10:47:55;101304.28;;;3.56;100.00
71772;BME280;59606;52.138;5.424;2024-01-06T10:50:23;101298.19;;;3.59;100.00
71772;BME280;59606;52.138;5.424;2024-01-06T10:52:50;101300.72;;;3.62;100.00
71772;BME280;59606;52.138;5.424;2024-01-06T10:55:18;101307.66;;;3.60;100.00
71772;BME280;59606;52.138;5.424;2024-01-06T10:57:46;101303.34;;;3.59;100.00
71772;BME280;59606;52.138;5.424;2024-01-06T11:00:15;101307.66;;;3.60;100.00
71772;BME280;59606;52.138;5.424;2024-01-06T11:02:42;101305.91;;;3.60;100.00
71772;BME280;59606;52.138;5.424;2024-01-06T11:05:09;101303.41;;;3.57;100.00
71772;BME280;59606;52.138;5.424;2024-01-06T11:07:38;101311.13;;;3.57;100.00
71772;BME280;59606;52.138;5.424;2024-01-06T11:10:14;101312.81;;;3.58;100.00
71772;BME280;59606;52.138;5.424;2024-01-06T11:12:44;101311.94;;;3.59;100.00
71772;BME280;59606;52.138;5.424;2024-01-06T11:18:07;101317.06;;;3.62;100.00
71772;BME280;59606;52.138;5.424;2024-01-06T11:20:34;101322.19;;;3.62;100.00
71772;BME280;59606;52.138;5.424;2024-01-06T11:23:19;101318.75;;;3.63;100.00
71772;BME280;59606;52.138;5.424;2024-01-06T11:25:49;101320.47;;;3.61;100.00
71772;BME280;59606;52.138;5.424;2024-01-06T11:28:16;101323.91;;;3.62;100.00
71772;BME280;59606;52.138;5.424;2024-01-06T11:30:43;101323.06;;;3.61;100.00
71772;BME280;59606;52.138;5.424;2024-01-06T11:33:10;101318.78;;;3.60;100.00
71772;BME280;59606;52.138;5.424;2024-01-06T11:35:37;101321.31;;;3.63;100.00
71772;BME280;59606;52.138;5.424;2024-01-06T11:38:06;101317.84;;;3.64;100.00
71772;BME280;59606;52.138;5.424;2024-01-06T11:40:35;101317.84;;;3.64;100.00
71772;BME280;59606;52.138;5.424;2024-01-06T11:43:10;101323.00;;;3.66;100.00
71772;BME280;59606;52.138;5.424;2024-01-06T11:45:38;101320.44;;;3.64;100.00
71772;BME280;59606;52.138;5.424;2024-01-06T11:48:08;101323.84;;;3.66;100.00
71772;BME280;59606;52.138;5.424;2024-01-06T11:50:36;101322.94;;;3.67;100.00
71772;BME280;59606;52.138;5.424;2024-01-06T11:53:04;101329.78;;;3.68;100.00
71772;BME280;59606;52.138;5.424;2024-01-06T11:55:31;101326.41;;;3.66;100.00
71772;BME280;59606;52.138;5.424;2024-01-06T11:57:59;101326.44;;;3.65;100.00
71772;BME280;59606;52.138;5.424;2024-01-06T12:00:30;101331.56;;;3.66;100.00
71772;BME280;59606;52.138;5.424;2024-01-06T12:03:00;101335.00;;;3.67;100.00
71772;BME280;59606;52.138;5.424;2024-01-06T12:05:28;101325.53;;;3.67;100.00
71772;BME280;59606;52.138;5.424;2024-01-06T12:07:59;101327.28;;;3.65;100.00
71772;BME280;59606;52.138;5.424;2024-01-06T12:10:27;101323.00;;;3.64;100.00
71772;BME280;59606;52.138;5.424;2024-01-06T12:12:59;101323.06;;;3.61;100.00
71772;BME280;59606;52.138;5.424;2024-01-06T12:15:27;101330.00;;;3.59;100.00
71772;BME280;59606;52.138;5.424;2024-01-06T12:17:54;101324.00;;;3.57;100.00
71772;BME280;59606;52.138;5.424;2024-01-06T12:20:22;101327.41;;;3.59;100.00
71772;BME280;59606;52.138;5.424;2024-01-06T12:22:53;101332.56;;;3.59;100.00
71772;BME280;59606;52.138;5.424;2024-01-06T12:25:24;101340.31;;;3.58;100.00
71772;BME280;59606;52.138;5.424;2024-01-06T12:27:52;101338.66;;;3.53;100.00
71772;BME280;59606;52.138;5.424;2024-01-06T12:30:22;101340.41;;;3.53;100.00
71772;BME280;59606;52.138;5.424;2024-01-06T12:32:50;101330.09;;;3.53;100.00
71772;BME280;59606;52.138;5.424;2024-01-06T12:35:20;101348.97;;;3.53;100.00
71772;BME280;59606;52.138;5.424;2024-01-06T12:37:47;101347.25;;;3.54;100.00
71772;BME280;59606;52.138;5.424;2024-01-06T12:40:15;101347.28;;;3.52;100.00
71772;BME280;59606;52.138;5.424;2024-01-06T12:42:44;101343.81;;;3.53;100.00
71772;BME280;59606;52.138;5.424;2024-01-06T12:45:11;101348.97;;;3.52;100.00
71772;BME280;59606;52.138;5.424;2024-01-06T12:47:39;101348.19;;;3.50;100.00
71772;BME280;59606;52.138;5.424;2024-01-06T12:50:07;101348.97;;;3.52;100.00
71772;BME280;59606;52.138;5.424;2024-01-06T12:52:34;101345.56;;;3.51;100.00